Time;durP1;ratioP1;P1;durP2;ratioP2;P2;SDS_P1;SDS_P2;PMS_P1;PMS_P2;Temp;Humidity;BMP_temperature;BMP_pressure;BME280_temperature;BME280_humidity;BME280_pressure;Samples;Min_cycle;Max_cycle;Signal;HPM_P1;HPM_P2
2021/12/14 00:02:25;;;;;;;3.40;3.10;;;;;;;18.08;56.51;102676.66;4960684;28;20052;-76
2021/12/14 00:04:51;;;;;;;4.30;2.92;;;;;;;18.08;56.63;102684.47;4945183;28;20026;-77
2021/12/14 00:07:20;;;;;;;4.10;3.28;;;;;;;18.07;56.88;102696.63;4960814;28;20393;-77
2021/12/14 00:09:46;;;;;;;3.25;2.83;;;;;;;18.06;56.51;102687.03;4977920;28;20496;-77
2021/12/14 00:12:36;;;;;;;4.28;2.95;;;;;;;18.07;56.49;102675.78;4960561;28;20031;-76
2021/12/14 00:15:10;;;;;;;4.25;3.20;;;;;;;18.06;56.51;102674.03;4978038;28;20027;-77
2021/12/14 00:17:50;;;;;;;5.00;3.28;;;;;;;18.07;56.40;102686.22;4960761;28;20074;-76
2021/12/14 00:20:35;;;;;;;3.97;3.15;;;;;;;18.07;56.70;102678.41;4960666;28;20061;-77
2021/12/14 00:25:44;;;;;;;3.60;3.03;;;;;;;18.06;56.48;102686.19;4961470;28;20151;-77
2021/12/14 00:28:20;;;;;;;3.95;2.95;;;;;;;18.06;56.72;102687.03;4961537;28;20023;-77
2021/12/14 00:30:55;;;;;;;3.25;2.72;;;;;;;18.05;56.58;102684.41;4979098;28;20030;-77
2021/12/14 00:33:26;;;;;;;3.63;3.25;;;;;;;18.04;56.51;102673.13;4961895;28;20037;-77
2021/12/14 00:35:52;;;;;;;3.83;2.90;;;;;;;18.05;56.27;102666.16;4962852;28;20026;-78
2021/12/14 00:38:22;;;;;;;3.47;3.08;;;;;;;18.05;56.25;102669.69;4961944;28;20038;-77
2021/12/14 00:41:04;;;;;;;3.00;2.70;;;;;;;18.04;56.25;102654.88;4979253;28;20026;-77
2021/12/14 00:43:29;;;;;;;4.13;3.45;;;;;;;18.03;56.25;102658.34;4958978;28;20037;-77
2021/12/14 00:45:55;;;;;;;3.35;2.88;;;;;;;18.04;56.25;102660.09;4967168;28;20034;-77
2021/12/14 00:48:21;;;;;;;3.50;3.08;;;;;;;18.04;56.21;102661.81;4982073;28;20062;-77
2021/12/14 00:50:51;;;;;;;3.65;3.22;;;;;;;18.04;56.40;102660.09;4981656;28;20507;-77
2021/12/14 00:53:17;;;;;;;4.60;3.28;;;;;;;18.04;56.24;102661.81;4980913;28;20034;-76
2021/12/14 00:55:47;;;;;;;3.97;3.22;;;;;;;18.03;56.19;102649.63;4999341;28;20465;-77
2021/12/14 00:58:14;;;;;;;4.95;3.25;;;;;;;18.03;56.41;102650.53;4983912;28;20113;-77
2021/12/14 01:00:45;;;;;;;3.17;2.88;;;;;;;18.03;56.08;102639.22;4982104;28;20033;-77
2021/12/14 01:03:11;;;;;;;4.05;2.90;;;;;;;18.02;56.24;102638.34;4998086;28;20113;-77
2021/12/14 01:05:41;;;;;;;3.20;2.90;;;;;;;18.02;56.13;102630.53;4980484;28;20027;-77
2021/12/14 01:08:10;;;;;;;4.55;2.70;;;;;;;18.02;56.43;102633.13;4979888;28;20045;-77
2021/12/14 01:10:46;;;;;;;3.35;2.95;;;;;;;18.02;56.21;102620.09;4997998;28;20050;-76
2021/12/14 01:13:13;;;;;;;3.13;2.80;;;;;;;18.02;56.16;102621.84;4980146;28;20077;-76
2021/12/14 01:16:02;;;;;;;3.28;2.83;;;;;;;18.01;56.24;102615.75;4963180;28;20034;-77
2021/12/14 01:21:16;;;;;;;3.08;2.78;;;;;;;18.02;56.10;102601.00;4996568;28;20030;-77
2021/12/14 01:23:44;;;;;;;4.22;2.97;;;;;;;18.01;56.19;102620.09;4979025;28;20034;-76
2021/12/14 01:26:15;;;;;;;4.55;3.10;;;;;;;18.01;56.15;102630.53;4978848;28;20081;-76
2021/12/14 01:28:43;;;;;;;3.25;2.90;;;;;;;18.01;56.19;102628.78;4979455;28;20058;-77
2021/12/14 01:31:26;;;;;;;3.58;2.97;;;;;;;18.01;56.11;102627.91;4979539;28;20030;-76
2021/12/14 01:33:59;;;;;;;3.70;2.90;;;;;;;18.00;56.14;102621.81;4979559;28;20026;-76
2021/12/14 01:36:42;;;;;;;3.30;3.00;;;;;;;18.01;56.03;102625.31;4982524;28;20495;-77
2021/12/14 01:39:47;;;;;;;3.65;3.13;;;;;;;18.00;56.39;102627.00;5001517;28;20101;-78
2021/12/14 01:42:33;;;;;;;3.60;2.85;;;;;;;18.00;56.01;102623.53;5001125;28;20042;-77
2021/12/14 01:45:20;;;;;;;3.13;2.72;;;;;;;18.01;56.17;102634.00;5002189;28;20030;-77
2021/12/14 01:47:49;;;;;;;3.45;2.70;;;;;;;18.01;55.75;102639.22;4998564;28;20072;-77
2021/12/14 01:50:25;;;;;;;3.97;2.90;;;;;;;18.00;56.05;102631.34;5001040;28;20038;-77
2021/12/14 01:52:50;;;;;;;3.20;2.90;;;;;;;18.00;56.00;102642.66;4984395;28;20361;-77
2021/12/14 01:55:20;;;;;;;3.30;2.85;;;;;;;18.00;56.05;102645.25;4983325;28;20105;-79
2021/12/14 01:57:46;;;;;;;3.45;2.85;;;;;;;17.98;56.03;102639.13;4980624;28;20036;-78
2021/12/14 02:00:20;;;;;;;4.25;2.72;;;;;;;17.99;55.83;102632.22;4981288;28;20046;-78
2021/12/14 02:02:47;;;;;;;3.63;2.80;;;;;;;17.99;55.94;102642.66;4983414;28;20027;-77
2021/12/14 02:05:21;;;;;;;3.13;2.80;;;;;;;17.99;55.74;102634.81;4984263;28;20396;-80
2021/12/14 02:07:47;;;;;;;3.13;2.58;;;;;;;17.99;55.97;102637.44;4981043;28;20032;-76
2021/12/14 02:10:20;;;;;;;3.42;2.70;;;;;;;17.99;56.10;102632.22;4979513;28;20026;-79
2021/12/14 02:12:46;;;;;;;5.40;3.03;;;;;;;17.99;56.01;102630.50;4983664;28;20033;-76
2021/12/14 02:15:25;;;;;;;6.13;2.72;;;;;;;17.98;55.96;102643.47;4981181;28;20031;-78
2021/12/14 02:17:53;;;;;;;3.30;2.78;;;;;;;17.98;55.99;102638.25;4978879;28;20030;-76
2021/12/14 02:20:24;;;;;;;4.53;2.95;;;;;;;17.99;55.90;102642.66;4994988;28;20018;-76
2021/12/14 02:22:50;;;;;;;3.10;2.70;;;;;;;17.98;55.94;102635.66;4977347;28;20034;-76
2021/12/14 02:25:16;;;;;;;3.05;2.47;;;;;;;17.97;55.88;102637.41;4995969;28;20081;-76
2021/12/14 02:27:45;;;;;;;3.95;2.50;;;;;;;17.98;55.91;102633.06;4995045;28;20036;-76
2021/12/14 02:30:16;;;;;;;3.10;2.70;;;;;;;17.96;55.69;102622.59;4977944;28;20427;-76
2021/12/14 02:32:41;;;;;;;4.05;2.50;;;;;;;17.96;55.64;102612.19;4994789;28;20030;-76
2021/12/14 02:35:12;;;;;;;3.13;2.67;;;;;;;17.97;55.95;102613.09;4995476;28;20038;-76
2021/12/14 02:37:53;;;;;;;4.22;2.75;;;;;;;17.97;55.74;102610.47;4979308;28;20064;-76
2021/12/14 02:41:01;;;;;;;3.42;2.72;;;;;;;17.96;55.58;102606.09;4995874;28;20026;-76
2021/12/14 02:43:19;;;;;;;3.30;2.80;;;;;;;17.95;55.98;102588.72;4991765;28;20524;-76
2021/12/14 02:45:44;;;;;;;2.92;2.60;;;;;;;17.95;55.88;102588.72;4977125;28;20031;-75
2021/12/14 02:48:11;;;;;;;2.80;2.60;;;;;;;17.95;55.66;102593.94;4961490;28;20035;-76
2021/12/14 02:50:38;;;;;;;3.45;2.75;;;;;;;17.96;55.82;102590.47;4995459;28;20074;-76
2021/12/14 02:53:05;;;;;;;3.35;2.70;;;;;;;17.95;56.04;102602.63;5000331;28;20034;-78
2021/12/14 02:55:31;;;;;;;4.22;2.60;;;;;;;17.95;55.80;102593.94;4967043;28;20030;-77
2021/12/14 02:58:05;;;;;;;3.40;2.72;;;;;;;17.95;55.64;102612.19;4947469;28;20392;-76
2021/12/14 03:00:35;;;;;;;;;;;;;;;17.94;55.72;102618.22;4998604;28;20484;-76
2021/12/14 03:03:03;;;;;;;3.88;3.08;;;;;;;17.95;55.70;102617.38;4983787;28;19980;-79
2021/12/14 03:05:33;;;;;;;3.00;2.40;;;;;;;17.95;55.68;102617.38;4986010;28;20050;-79
2021/12/14 03:08:07;;;;;;;4.10;3.05;;;;;;;17.95;55.33;102622.59;5008310;28;20031;-81
2021/12/14 03:13:16;;;;;;;3.10;2.65;;;;;;;17.95;55.58;102620.00;4308949;26;20054;-84
2021/12/14 03:19:27;;;;;;;4.05;2.90;;;;;;;17.94;55.54;102619.09;5040322;28;20044;-84
2021/12/14 03:22:23;;;;;;;3.50;3.00;;;;;;;17.94;55.49;102632.13;5022148;28;20041;-85
2021/12/14 03:28:52;;;;;;;3.83;2.95;;;;;;;17.94;55.62;102636.44;5041939;28;20061;-84
2021/12/14 03:41:55;;;;;;;3.45;2.90;;;;;;;17.92;55.43;102625.13;4978305;28;20030;-83
2021/12/14 03:44:52;;;;;;;3.53;2.88;;;;;;;17.92;55.52;102625.13;5039533;28;20029;-83
2021/12/14 03:50:59;;;;;;;3.65;2.80;;;;;;;17.89;55.25;102611.19;4977389;29;20042;-83
2021/12/14 03:53:50;;;;;;;3.20;2.90;;;;;;;17.89;55.38;102611.19;4977592;29;20102;-83
2021/12/14 04:59:42;;;;;;;2.97;2.67;;;;;;;17.86;55.43;102605.09;4940645;24;20058;-81
2021/12/14 05:02:15;;;;;;;2.80;2.25;;;;;;;17.85;55.64;102598.97;4861042;29;20076;-81
2021/12/14 05:04:42;;;;;;;5.90;2.63;;;;;;;17.87;55.86;102591.19;4845351;29;20105;-81
2021/12/14 05:07:45;;;;;;;2.78;2.42;;;;;;;17.86;55.71;102590.31;4831853;29;20049;-81
2021/12/14 05:10:55;;;;;;;3.83;2.70;;;;;;;17.88;55.78;102593.84;4863373;29;20034;-82
2021/12/14 05:14:07;;;;;;;2.97;2.30;;;;;;;17.88;55.96;102598.19;4845642;29;20038;-82
2021/12/14 05:17:11;;;;;;;2.50;2.20;;;;;;;17.86;56.10;102600.75;4845359;29;20037;-83
2021/12/14 05:19:56;;;;;;;;;;;;;;;17.89;55.70;102606.00;4846849;29;20065;-82
2021/12/14 05:22:46;;;;;;;3.08;2.55;;;;;;;17.88;55.67;102603.38;4847145;29;19921;-82
2021/12/14 05:25:30;;;;;;;3.15;2.60;;;;;;;17.89;55.83;102602.50;4800460;29;20086;-82
2021/12/14 05:28:25;;;;;;;3.78;2.30;;;;;;;17.87;55.77;102594.66;4838814;29;20053;-82
2021/12/14 05:34:39;;;;;;;3.20;2.90;;;;;;;17.86;55.39;102594.66;4845070;29;20042;-82
2021/12/14 05:37:11;;;;;;;3.25;2.72;;;;;;;17.87;55.56;102610.28;4830359;29;20035;-82
2021/12/14 05:49:56;;;;;;;5.05;2.90;;;;;;;17.84;55.67;102599.84;4865763;29;20037;-82
2021/12/14 05:55:51;;;;;;;2.90;2.50;;;;;;;17.84;55.76;102598.97;4866473;29;20063;-82
2021/12/14 05:58:30;;;;;;;3.45;2.55;;;;;;;17.84;55.73;102610.25;4829730;29;20057;-83
2021/12/14 06:01:02;;;;;;;3.40;2.58;;;;;;;17.85;56.00;102605.91;4849234;29;20070;-82
2021/12/14 06:03:33;;;;;;;3.33;2.58;;;;;;;17.85;56.16;102609.38;4834906;29;20065;-81
2021/12/14 06:06:37;;;;;;;3.70;3.10;;;;;;;17.87;55.79;102618.09;4844394;29;20041;-84
2021/12/14 06:09:23;;;;;;;25.50;7.68;;;;;;;17.86;56.20;102611.16;4860642;29;20049;-81
2021/12/14 06:11:53;;;;;;;20.65;6.43;;;;;;;17.89;56.19;102620.75;4853023;29;20102;-80
2021/12/14 06:14:24;;;;;;;16.88;7.03;;;;;;;17.89;56.21;102619.00;4847892;29;20048;-82
2021/12/14 06:17:39;;;;;;;18.63;6.93;;;;;;;17.91;56.25;102624.25;4827157;29;20069;-82
2021/12/14 06:30:04;;;;;;;13.80;5.60;;;;;;;17.92;56.50;102631.25;4853689;29;20092;-86
2021/12/14 11:48:30;;;;;;;2.60;1.90;;;;;;;17.99;55.69;102723.41;5350606;24;20047;-81
2021/12/14 14:23:21;;;;;;;4.15;1.70;;;;;;;17.92;55.78;102705.88;4090098;27;20039;-85
2021/12/14 14:36:13;;;;;;;6.15;1.90;;;;;;;17.91;55.90;102714.56;4826837;29;20122;-84
2021/12/14 14:38:54;;;;;;;2.40;1.70;;;;;;;17.88;56.09;102710.16;4829165;29;20042;-85
2021/12/14 14:51:53;;;;;;;1.88;1.25;;;;;;;17.88;55.77;102728.41;4845067;29;20550;-84
2021/12/14 15:03:58;;;;;;;2.60;1.40;;;;;;;17.87;55.96;102729.22;4869423;24;20068;-84
2021/12/14 15:07:07;;;;;;;2.95;1.70;;;;;;;17.87;56.09;102732.72;4824735;29;20471;-83
2021/12/14 15:13:54;;;;;;;3.47;1.52;;;;;;;17.87;55.92;102740.53;4832372;29;20102;-84
2021/12/14 15:36:49;;;;;;;2.75;1.58;;;;;;;17.87;56.37;102731.84;4814715;29;20662;-84
2021/12/14 15:40:04;;;;;;;2.90;1.13;;;;;;;17.86;56.34;102735.31;4779372;30;20039;-83
2021/12/14 15:51:49;;;;;;;2.15;1.20;;;;;;;17.89;56.42;102738.81;5324553;24;20100;-82
2021/12/14 15:54:42;;;;;;;2.55;1.48;;;;;;;17.91;56.36;102738.00;4799529;30;20028;-80
2021/12/14 16:00:40;;;;;;;2.67;1.60;;;;;;;17.92;56.26;102744.94;4879559;24;20055;-86
2021/12/14 16:20:49;;;;;;;3.85;1.40;;;;;;;17.94;56.84;102751.06;4829728;29;20087;-85
2021/12/14 16:23:20;;;;;;;5.55;1.30;;;;;;;17.95;56.59;102745.03;4814504;29;20035;-84
2021/12/14 16:28:35;;;;;;;2.60;1.63;;;;;;;17.94;56.83;102749.31;5045342;24;20062;-84
2021/12/14 16:31:12;;;;;;;2.65;1.23;;;;;;;17.95;56.76;102750.22;4799859;29;20022;-85
2021/12/14 16:34:01;;;;;;;2.67;1.20;;;;;;;17.96;56.80;102746.75;4829970;29;20092;-81
2021/12/14 16:39:51;;;;;;;3.00;1.30;;;;;;;17.95;56.90;102753.72;4830742;29;20087;-84
2021/12/14 16:43:16;;;;;;;2.40;1.50;;;;;;;17.97;56.70;102754.63;4798441;29;20031;-84
2021/12/14 16:52:47;;;;;;;2.97;1.38;;;;;;;17.99;56.93;102759.88;4741491;30;20083;-85
2021/12/14 17:01:37;;;;;;;2.78;1.27;;;;;;;17.99;56.92;102763.34;4829962;29;20091;-84
2021/12/14 17:38:25;;;;;;;2.53;1.40;;;;;;;18.04;57.19;102784.28;5592270;24;19973;-80
2021/12/14 19:17:20;;;;;;;6.55;4.28;;;;;;;18.23;59.07;102812.44;4825348;29;20063;-87
2021/12/14 19:20:24;;;;;;;4.82;3.72;;;;;;;18.22;59.26;102818.47;4810451;29;20047;-83
2021/12/14 19:23:12;;;;;;;4.93;3.92;;;;;;;18.24;59.22;102822.00;4824805;29;20043;-83
2021/12/14 19:26:16;;;;;;;5.57;3.95;;;;;;;18.24;59.30;102821.13;4817700;29;20031;-85
2021/12/14 19:29:11;;;;;;;5.20;3.80;;;;;;;18.24;59.43;102823.72;4802010;29;20053;-82
2021/12/14 19:34:36;;;;;;;5.55;3.90;;;;;;;18.24;59.57;102822.00;5353656;24;20070;-83
2021/12/14 19:54:21;;;;;;;5.30;3.75;;;;;;;18.26;59.28;102824.66;4747480;30;20092;-80
2021/12/14 19:56:49;;;;;;;;;;;;;;;18.27;59.50;102823.81;4767893;30;20098;-81
2021/12/14 19:59:28;;;;;;;7.95;3.65;;;;;;;18.25;59.65;102822.91;4763466;30;19914;-81
2021/12/14 20:02:32;;;;;;;5.15;3.65;;;;;;;18.27;59.45;102818.59;4776661;30;20431;-85
2021/12/14 20:05:07;;;;;;;6.38;3.97;;;;;;;18.26;59.63;102825.50;4770137;30;20036;-82
2021/12/14 20:07:37;;;;;;;4.07;3.67;;;;;;;18.26;59.58;102822.91;4814273;29;20075;-81
2021/12/14 20:10:09;;;;;;;6.95;3.38;;;;;;;18.26;59.37;102822.91;4824516;29;20029;-82
2021/12/14 20:16:39;;;;;;;4.50;3.67;;;;;;;18.28;59.53;102828.16;4850665;29;20081;-84
2021/12/14 20:23:20;;;;;;;5.45;3.50;;;;;;;18.28;59.43;102826.41;4777024;30;20101;-83
2021/12/14 20:54:22;;;;;;;4.65;3.30;;;;;;;18.24;59.29;102816.78;4810300;29;20075;-80
2021/12/14 20:56:48;;;;;;;4.43;3.33;;;;;;;18.24;59.29;102816.78;4825935;29;20053;-80
2021/12/14 21:32:40;;;;;;;7.65;3.50;;;;;;;18.26;59.32;102835.06;3983952;27;19909;-84
2021/12/14 22:29:30;;;;;;;7.60;3.70;;;;;;;18.21;58.55;102855.81;5451324;24;19925;-85
2021/12/14 22:32:16;;;;;;;6.10;3.72;;;;;;;18.22;58.31;102854.09;4807231;29;20104;-85
2021/12/14 22:45:39;;;;;;;6.53;3.42;;;;;;;18.22;58.23;102860.19;4811002;29;20030;-85
2021/12/14 22:55:02;;;;;;;5.95;3.58;;;;;;;18.22;58.37;102864.53;4790117;30;20079;-85
2021/12/14 22:58:18;;;;;;;6.55;3.47;;;;;;;18.20;58.28;102855.78;4789582;30;20059;-85
2021/12/14 23:22:45;;;;;;;6.93;3.35;;;;;;;18.19;58.10;102864.47;4848025;29;20080;-85
2021/12/14 23:29:24;;;;;;;4.05;2.92;;;;;;;18.18;58.10;102850.56;4847452;29;20049;-85
